Saturday, November 17, 2018, 10:27 AM EST
Back to Local

KALB, Albany International Airport

Location: Latham, NY, United States Lat: 42.75
Local Time: 10:27 AM EST (15:27 GMT) Lon: -73.8
Time Zone: US/Eastern Elev: 285 ft

Show me the last for .
Show Decoded

2018-11-17 09:51 METAR KALB 171451Z 20004KT 10SM OVC035 05/M01 A3010 RMK AO2 SLP194 VCSH N BINOVC
                 DSNT SE-SW 60000 T00501011 51021 =
2018-11-17 08:51 METAR KALB 171351Z 27004KT 10SM FEW028 BKN031 OVC049 05/M01 A3009 RMK AO2
                 RAB39E47 SLP191 BINOVC DSNT S-SW P0000 T00501011 =
2018-11-17 08:27 METAR KALB 171327Z 26004KT 10SM SCT031 BKN035 OVC049 05/M01 A3009 RMK AO2
                 T00501011 =
2018-11-17 07:51 METAR KALB 171251Z 00000KT 10SM OVC029 03/M01 A3007 RMK AO2 SLP184 T00331006 =
2018-11-17 06:51 METAR KALB 171151Z 17003KT 10SM BKN029 OVC042 03/M01 A3003 RMK AO2
                 RAB1052E04DZB04E23 SLP173 4/003 P0000 60000 70014 T00331006 10044 20028 53028 =
2018-11-17 06:24 METAR KALB 171124Z 20004KT 10SM BKN030 OVC042 03/M01 A3002 RMK AO2
                 RAB1052E04DZB04E23 P0000 T00331006 =
2018-11-17 05:51 METAR KALB 171051Z 18005KT 10SM BKN028 OVC034 04/M01 A3000 RMK AO2 DZE02 SLP162
                 P0000 T00391011 =
2018-11-17 04:51 METAR KALB 170951Z 20004KT 10SM -DZ OVC025 03/M01 A2998 RMK AO2 DZB26 SLP153
                 PCPN VRY LGT P0000 T00281011 =
2018-11-17 03:51 METAR KALB 170851Z 19003KT 10SM BKN029 BKN034 OVC041 03/M02 A2995 RMK AO2 DZE12
                 SLP145 P0000 60000 T00331017 52023 =
2018-11-17 03:38 METAR KALB 170838Z 24007KT 10SM BKN029 OVC037 04/M02 A2994 =
2018-11-17 02:51 METAR KALB 170751Z 21003KT 10SM -DZ BKN030 OVC037 03/M01 A2993 RMK AO2 DZB50
                 SLP137 PCPN VRY LGT P0000 T00331011 =
2018-11-17 01:51 METAR KALB 170651Z 26005KT 10SM OVC027 04/M02 A2990 RMK AO2 SLP129 T00441017 =
2018-11-17 00:51 METAR KALB 170551Z 22004KT 10SM BKN029 OVC041 04/M01 A2988 RMK AO2 SLP121 4/003
                 60000 T00391011 10044 20022 51017 =
2018-11-17 00:12 METAR KALB 170512Z 27006KT 10SM SCT027 BKN031 OVC041 04/M01 A2988 RMK AO2
                 T00441011 =
2018-11-16 23:51 METAR KALB 170451Z 24008KT 10SM BKN027 OVC034 04/M01 A2987 RMK AO2 SLP117
                 T00391011 400441033 =
2018-11-16 23:32 METAR KALB 170432Z 27005KT 10SM BKN028 OVC035 04/M02 A2986 RMK AO2 T00441017 =
2018-11-16 22:51 METAR KALB 170351Z 29010KT 10SM SCT026 BKN032 OVC046 04/M02 A2985 RMK AO2 SLP110
                 T00441017 =
2018-11-16 22:16 METAR KALB 170316Z 27007KT 10SM SCT026 BKN032 OVC043 04/M01 A2984 =
2018-11-16 21:51 METAR KALB 170251Z 25006KT 10SM BKN026 OVC034 04/M01 A2983 RMK AO2
                 DZB0158E30SNE0158 SLP105 P0000 60000 T00391011 53021 =
2018-11-16 20:51 METAR KALB 170151Z 00000KT 10SM -SN BKN027 OVC034 02/M01 A2981 RMK AO2 SNB51
                 SLP097 P0000 T00221006 =
2018-11-16 19:51 METAR KALB 170051Z 00000KT 10SM BKN029 BKN034 OVC042 03/M01 A2979 RMK AO2 SLP089
                 T00281006 =
2018-11-16 18:51 METAR KALB 162351Z 15003KT 10SM BKN026 BKN036 OVC055 03/M01 A2977 RMK AO2 SLP084
                 4/005 60000 T00281006 10033 20011 53020 =
2018-11-16 17:51 METAR KALB 162251Z COR 21004KT 10SM BKN028 BKN036 02/M02 A2975 RMK AO2 SNB06E51
                 SLP077 BKN028 V SCT P0000 T00171017 =
2018-11-16 16:51 METAR KALB 162151Z 00000KT 10SM BKN024 OVC032 02/M01 A2972 RMK AO2 SNE39 SLP069
                 P0000 T00171011 =
2018-11-16 15:51 METAR KALB 162051Z 00000KT 9SM -SN BKN025 BKN034 BKN180 02/M02 A2971 RMK AO2
                 SLP064 P0000 60000 T00221017 53006 =
2018-11-16 14:51 METAR KALB 161951Z 00000KT 10SM -SN SCT011 BKN015 OVC080 02/M02 A2968 RMK AO2
                 SNB51 SLP054 PCPN VRY LGT P0000 T00171022 =
2018-11-16 13:51 METAR KALB 161851Z 01004KT 10SM SCT011 BKN015 OVC038 02/M02 A2969 RMK AO2 SNE03
                 SLP056 BINOVC P0000 T00171017 =
2018-11-16 12:51 METAR KALB 161751Z 31003KT 9SM -SN FEW008 BKN016 OVC033 01/M02 A2969 RMK AO2
                 SLP058 4/005 933007 P0000 60014 T00111022 10011 21011 51000 =
2018-11-16 12:40 METAR KALB 161740Z 30005KT 3SM -SN FEW008 BKN016 OVC033 01/M02 A2970 RMK AO2 SFC
                 VIS 4 P0000 T00061022 =
2018-11-16 12:03 METAR KALB 161703Z 31005KT 2SM -SN FEW008 OVC013 01/M03 A2969 RMK AO2 SFC VIS 2
                 1/2 VIS 2V3 P0000 T00061028 =
2018-11-16 11:51 METAR KALB 161651Z 35006KT 3SM -SN FEW007 OVC011 01/M03 A2968 RMK AO2 SNB25
                 SLP055 P0000 T00061028 =
2018-11-16 10:51 METAR KALB 161551Z 01008KT 9SM FEW007 OVC011 00/M03 A2970 RMK AO2 SNE51 SLP061
                 P0000 T00001033 =

Support USWX by starting your Amazon purchase here.